Time;durP1;ratioP1;P1;durP2;ratioP2;P2;SDS_P1;SDS_P2;PMS_P1;PMS_P2;Temp;Humidity;BMP_temperature;BMP_pressure;BME280_temperature;BME280_humidity;BME280_pressure;Samples;Min_cycle;Max_cycle;Signal;HPM_P1;HPM_P2
2022/02/15 00:00:05;;;;;;;22.75;14.63;;;;;;;2.05;100.00;93517.72;5091297;28;20048;-80
2022/02/15 00:02:32;;;;;;;26.08;16.33;;;;;;;1.93;100.00;93503.69;5090949;28;20479;-80
2022/02/15 00:04:59;;;;;;;25.98;15.85;;;;;;;1.67;100.00;93476.63;5090703;28;20051;-80
2022/02/15 00:07:26;;;;;;;24.63;15.00;;;;;;;1.80;100.00;93502.34;5091011;28;20056;-79
2022/02/15 00:09:52;;;;;;;20.98;14.48;;;;;;;1.88;100.00;93514.28;5091130;28;20040;-80
2022/02/15 00:12:19;;;;;;;23.13;16.52;;;;;;;1.84;100.00;93502.84;5090814;28;20044;-80
2022/02/15 00:14:47;;;;;;;25.13;15.48;;;;;;;1.90;100.00;93507.31;5090819;28;20070;-80
2022/02/15 00:17:14;;;;;;;23.88;15.10;;;;;;;1.92;100.00;93502.09;5090873;28;20040;-80
2022/02/15 00:19:41;;;;;;;24.40;14.95;;;;;;;1.96;100.00;93504.22;5090578;28;20058;-80
2022/02/15 00:22:08;;;;;;;27.38;18.30;;;;;;;1.99;100.00;93503.88;5090301;28;20407;-80
2022/02/15 00:24:35;;;;;;;24.48;16.75;;;;;;;1.97;100.00;93498.19;5090630;28;20403;-79
2022/02/15 00:27:02;;;;;;;26.05;16.23;;;;;;;2.03;100.00;93501.84;5090638;28;20040;-80
2022/02/15 00:29:29;;;;;;;29.63;19.02;;;;;;;1.93;100.00;93496.09;5090638;28;20172;-77
2022/02/15 00:31:57;;;;;;;30.05;18.55;;;;;;;1.89;100.00;93503.19;5090341;28;20044;-77
2022/02/15 00:34:24;;;;;;;25.77;14.63;;;;;;;1.89;100.00;93497.34;5090477;28;20529;-79
2022/02/15 00:36:51;;;;;;;26.15;16.00;;;;;;;1.89;100.00;93505.72;5090465;28;20110;-79
2022/02/15 00:39:17;;;;;;;23.27;15.13;;;;;;;1.93;100.00;93501.16;5090314;28;20475;-80
2022/02/15 00:41:44;;;;;;;24.52;14.57;;;;;;;1.95;100.00;93502.59;5090471;28;20429;-79
2022/02/15 00:44:11;;;;;;;25.40;14.45;;;;;;;1.92;100.00;93492.78;5090318;28;20044;-79
2022/02/15 00:46:38;;;;;;;23.05;14.00;;;;;;;2.00;100.00;93497.88;5090042;28;20040;-79
2022/02/15 00:49:06;;;;;;;26.77;17.13;;;;;;;1.95;100.00;93495.00;5090103;28;20779;-80
2022/02/15 00:51:33;;;;;;;26.92;17.15;;;;;;;1.92;100.00;93497.03;5089945;28;20044;-80
2022/02/15 00:54:00;;;;;;;26.80;15.45;;;;;;;1.75;100.00;93494.41;5090059;28;20055;-80
2022/02/15 00:56:26;;;;;;;29.75;16.80;;;;;;;1.59;100.00;93480.66;5090223;28;20044;-79
2022/02/15 00:58:53;;;;;;;25.58;17.45;;;;;;;1.73;100.00;93491.22;5089812;28;20089;-80
2022/02/15 01:01:21;;;;;;;29.83;17.27;;;;;;;1.60;100.00;93451.91;5090172;28;20051;-80
2022/02/15 01:03:49;;;;;;;22.77;14.68;;;;;;;1.82;100.00;93477.69;5089448;28;20040;-80
2022/02/15 01:06:17;;;;;;;26.52;14.82;;;;;;;1.83;100.00;93478.47;5090215;28;20051;-80
2022/02/15 01:08:45;;;;;;;25.80;15.52;;;;;;;1.84;100.00;93468.19;5068575;28;20048;-79
2022/02/15 01:11:12;;;;;;;24.63;15.82;;;;;;;1.76;100.00;93442.78;5089629;28;20051;-80
2022/02/15 01:13:39;;;;;;;25.73;15.70;;;;;;;1.83;100.00;93459.00;5090208;28;20101;-80
2022/02/15 01:16:08;;;;;;;25.85;14.85;;;;;;;1.78;100.00;93442.66;5089927;28;20132;-80
2022/02/15 01:18:35;;;;;;;26.48;15.40;;;;;;;1.71;100.00;93435.66;5069359;28;20045;-80
2022/02/15 01:21:02;;;;;;;27.60;16.35;;;;;;;1.81;100.00;93447.44;5069658;28;20044;-80
2022/02/15 01:23:30;;;;;;;23.15;15.60;;;;;;;1.82;100.00;93451.53;5069178;28;20047;-80
2022/02/15 01:25:57;;;;;;;26.67;16.58;;;;;;;1.82;100.00;93436.34;5069396;28;20048;-80
2022/02/15 01:28:24;;;;;;;26.67;16.58;;;;;;;1.80;100.00;93440.78;5069790;28;20106;-80
2022/02/15 01:30:51;;;;;;;30.65;17.17;;;;;;;1.77;100.00;93433.47;5069323;28;20048;-80
2022/02/15 01:33:18;;;;;;;26.92;16.88;;;;;;;1.63;100.00;93417.91;5068466;28;20032;-80
2022/02/15 01:35:45;;;;;;;29.52;16.50;;;;;;;1.78;100.00;93433.31;5069478;28;20041;-79
2022/02/15 01:38:11;;;;;;;27.02;16.95;;;;;;;1.60;100.00;93392.84;5069526;28;20051;-79
2022/02/15 01:40:40;;;;;;;28.02;16.52;;;;;;;1.76;100.00;93426.81;5069407;28;20098;-80
2022/02/15 01:43:07;;;;;;;26.02;15.55;;;;;;;1.76;100.00;93427.59;5069136;28;20041;-78
2022/02/15 01:45:34;;;;;;;26.02;16.38;;;;;;;1.76;100.00;93437.72;5069171;28;20094;-79
2022/02/15 01:48:01;;;;;;;23.88;15.88;;;;;;;1.76;100.00;93436.94;5069542;28;20040;-79
2022/02/15 01:50:28;;;;;;;27.58;15.85;;;;;;;1.72;100.00;93434.69;5069823;28;20045;-79
2022/02/15 01:52:55;;;;;;;24.38;16.88;;;;;;;1.75;100.00;93430.31;5069703;28;20496;-79
2022/02/15 01:55:22;;;;;;;29.13;16.35;;;;;;;1.67;100.00;93425.97;5069329;28;20094;-79
2022/02/15 01:57:50;;;;;;;26.40;17.33;;;;;;;1.61;100.00;93434.94;5069131;28;20538;-79
2022/02/15 02:00:20;;;;;;;27.08;17.63;;;;;;;1.60;100.00;93434.19;5069280;28;20052;-79
2022/02/15 02:02:48;;;;;;;27.67;17.58;;;;;;;1.60;100.00;93435.91;5068922;28;20537;-79
2022/02/15 02:07:59;;;;;;;22.88;16.13;;;;;;;1.60;100.00;93439.25;5089275;28;20101;-78
2022/02/15 02:10:26;;;;;;;23.33;16.05;;;;;;;1.53;100.00;93433.16;5089217;28;20093;-78
2022/02/15 02:12:54;;;;;;;22.25;15.65;;;;;;;1.57;100.00;93426.09;5076338;28;20052;-78
2022/02/15 02:15:24;;;;;;;25.92;15.85;;;;;;;1.60;100.00;93436.72;5089247;28;20079;-78
2022/02/15 02:17:52;;;;;;;27.15;15.90;;;;;;;1.59;100.00;93432.56;5088893;28;20509;-78
2022/02/15 02:20:20;;;;;;;27.48;16.77;;;;;;;1.56;100.00;93440.47;5089253;28;20455;-78
2022/02/15 02:22:49;;;;;;;25.35;15.45;;;;;;;1.51;100.00;93441.84;5088842;28;20475;-80
2022/02/15 02:25:18;;;;;;;19.85;14.68;;;;;;;1.57;100.00;93438.75;5088914;28;20074;-80
2022/02/15 02:27:45;;;;;;;21.00;14.43;;;;;;;1.42;100.00;93415.69;5088928;28;20047;-80
2022/02/15 02:30:13;;;;;;;20.33;13.70;;;;;;;1.50;100.00;93438.53;5088912;28;20042;-80
2022/02/15 02:32:39;;;;;;;23.50;14.77;;;;;;;1.40;100.00;93431.03;5089365;28;20093;-80
2022/02/15 02:35:07;;;;;;;19.40;13.52;;;;;;;1.57;100.00;93453.94;5089142;28;20048;-80
2022/02/15 02:37:35;;;;;;;20.52;13.13;;;;;;;1.55;100.00;93458.34;5088870;28;20039;-79
2022/02/15 02:40:06;;;;;;;19.73;13.68;;;;;;;1.53;100.00;93450.88;5088876;28;20043;-81
2022/02/15 02:42:34;;;;;;;21.98;15.05;;;;;;;1.54;100.00;93464.34;5089251;28;20044;-81
2022/02/15 02:45:03;;;;;;;22.52;14.43;;;;;;;1.53;100.00;93477.97;5091785;28;20093;-80
2022/02/15 02:47:30;;;;;;;19.90;14.15;;;;;;;1.45;100.00;93464.28;5092380;28;20130;-80
2022/02/15 02:49:57;;;;;;;20.05;14.27;;;;;;;1.50;100.00;93468.09;5092705;28;20036;-80
2022/02/15 02:52:25;;;;;;;19.73;13.82;;;;;;;1.44;100.00;93470.28;5092578;28;20052;-80
2022/02/15 02:54:52;;;;;;;22.50;14.75;;;;;;;1.23;100.00;93450.38;5092434;28;20048;-80
2022/02/15 02:57:21;;;;;;;24.45;14.50;;;;;;;1.45;100.00;93486.28;5092272;28;20043;-79
2022/02/15 02:59:48;;;;;;;21.17;14.32;;;;;;;1.46;100.00;93496.28;5092389;28;20100;-80
2022/02/15 03:02:16;;;;;;;21.13;14.65;;;;;;;1.45;100.00;93486.28;5092432;28;20096;-80
2022/02/15 03:04:43;;;;;;;21.33;14.35;;;;;;;1.34;100.00;93467.03;5091908;28;20044;-80
2022/02/15 03:07:10;;;;;;;17.65;12.38;;;;;;;1.42;100.00;93492.44;5092269;28;20044;-80
2022/02/15 03:09:37;;;;;;;18.83;13.57;;;;;;;1.51;100.00;93495.81;5092005;28;20039;-80
2022/02/15 03:12:05;;;;;;;22.02;13.88;;;;;;;1.30;100.00;93468.28;5091939;28;20044;-79
2022/02/15 03:14:34;;;;;;;22.52;15.35;;;;;;;1.49;100.00;93504.50;5092313;28;20418;-79
2022/02/15 03:17:00;;;;;;;23.08;15.07;;;;;;;1.46;100.00;93503.88;5087027;28;20479;-79
2022/02/15 03:19:27;;;;;;;25.00;16.33;;;;;;;1.44;100.00;93510.00;5090269;28;20048;-80
2022/02/15 03:21:54;;;;;;;23.00;14.95;;;;;;;1.35;100.00;93509.16;5091790;28;20047;-80
2022/02/15 03:24:21;;;;;;;24.30;16.75;;;;;;;1.29;100.00;93507.97;5091840;28;21201;-79
2022/02/15 03:26:47;;;;;;;27.23;16.88;;;;;;;1.29;100.00;93509.72;5091658;28;20036;-80
2022/02/15 03:29:14;;;;;;;27.55;17.08;;;;;;;1.33;100.00;93503.41;5091480;28;20044;-79
2022/02/15 03:31:43;;;;;;;25.38;16.25;;;;;;;1.34;100.00;93515.13;5091784;28;20089;-79
2022/02/15 03:34:09;;;;;;;24.60;15.73;;;;;;;1.33;100.00;93514.34;5091256;28;20052;-79
2022/02/15 03:36:36;;;;;;;26.50;17.75;;;;;;;1.36;100.00;93513.28;5091709;28;20536;-79
2022/02/15 03:39:05;;;;;;;25.98;16.85;;;;;;;1.24;100.00;93489.13;5091360;28;20093;-79
2022/02/15 03:44:16;;;;;;;24.23;15.50;;;;;;;1.31;100.00;93495.19;5091327;28;20055;-78
2022/02/15 03:46:45;;;;;;;27.15;16.98;;;;;;;1.47;100.00;93524.91;5091101;28;20044;-78
2022/02/15 03:49:12;;;;;;;28.30;16.80;;;;;;;1.48;100.00;93526.47;5091356;28;20044;-78
2022/02/15 03:51:39;;;;;;;27.27;17.42;;;;;;;1.42;100.00;93511.88;5091367;28;20036;-77
2022/02/15 03:54:07;;;;;;;25.73;17.58;;;;;;;1.43;100.00;93514.25;5091088;28;20048;-77
2022/02/15 03:56:35;;;;;;;27.58;15.85;;;;;;;1.45;100.00;93514.91;5090618;28;20048;-78
2022/02/15 03:59:03;;;;;;;23.23;15.60;;;;;;;1.47;100.00;93519.81;5091398;28;20381;-78
2022/02/15 04:01:30;;;;;;;23.63;16.58;;;;;;;1.44;100.00;93507.47;5091024;28;20044;-78
2022/02/15 04:03:58;;;;;;;27.17;16.00;;;;;;;1.49;100.00;93515.44;5090934;28;20048;-78
2022/02/15 04:06:25;;;;;;;24.55;15.60;;;;;;;1.43;100.00;93503.38;5078710;28;20044;-78
2022/02/15 04:08:51;;;;;;;22.35;15.15;;;;;;;1.51;100.00;93512.72;5090899;28;20043;-78
2022/02/15 04:11:18;;;;;;;21.55;13.73;;;;;;;1.49;100.00;93512.09;5091030;28;20039;-78
2022/02/15 04:13:45;;;;;;;23.15;14.55;;;;;;;1.33;100.00;93494.09;5090834;28;20040;-78
2022/02/15 04:16:13;;;;;;;24.48;16.27;;;;;;;1.25;100.00;93481.38;5072016;28;20051;-78
2022/02/15 04:18:43;;;;;;;24.88;16.42;;;;;;;1.46;100.00;93511.47;5088650;28;20139;-79
2022/02/15 04:21:14;;;;;;;24.60;15.57;;;;;;;1.43;100.00;93516.03;5090810;28;20048;-78
2022/02/15 04:23:41;;;;;;;23.70;15.63;;;;;;;1.41;100.00;93508.56;5090531;28;20642;-78
2022/02/15 04:26:08;;;;;;;26.80;17.27;;;;;;;1.19;100.00;93476.88;5090209;28;20113;-78
2022/02/15 04:28:35;;;;;;;24.92;16.27;;;;;;;1.38;100.00;93506.31;5090525;28;20044;-78
2022/02/15 04:31:02;;;;;;;23.77;15.70;;;;;;;1.38;100.00;93505.53;5090666;28;20055;-78
2022/02/15 04:33:28;;;;;;;23.52;16.40;;;;;;;1.40;100.00;93496.06;5090198;28;20044;-78
2022/02/15 04:35:55;;;;;;;25.08;15.73;;;;;;;1.38;100.00;93498.72;5090719;28;20422;-79
2022/02/15 04:38:24;;;;;;;26.55;17.23;;;;;;;1.36;100.00;93500.63;5090212;28;20055;-80
2022/02/15 04:40:50;;;;;;;23.20;15.70;;;;;;;1.33;100.00;93505.94;5090052;28;20044;-80
2022/02/15 04:43:17;;;;;;;35.13;21.63;;;;;;;1.37;100.00;93511.50;5090086;28;20089;-80
2022/02/15 04:45:44;;;;;;;26.80;18.52;;;;;;;1.32;100.00;93504.38;5090071;28;20043;-80
2022/02/15 04:48:11;;;;;;;28.05;17.85;;;;;;;1.28;100.00;93505.59;5090163;28;20044;-80
2022/02/15 04:50:38;;;;;;;28.38;18.13;;;;;;;1.25;100.00;93501.63;5090060;28;20043;-81
2022/02/15 04:53:04;;;;;;;25.20;17.08;;;;;;;1.26;100.00;93502.41;5089912;28;20074;-84
2022/02/15 04:55:33;;;;;;;29.05;18.08;;;;;;;1.16;100.00;93488.09;5090211;28;20085;-81
2022/02/15 04:58:00;;;;;;;25.95;17.13;;;;;;;1.32;100.00;93517.03;5090632;28;20433;-81
2022/02/15 05:00:26;;;;;;;24.73;17.20;;;;;;;1.30;100.00;93519.69;5089288;28;20070;-81
2022/02/15 05:02:53;;;;;;;29.33;18.67;;;;;;;1.31;100.00;93515.44;5090012;28;20052;-80
2022/02/15 05:05:20;;;;;;;30.10;17.63;;;;;;;1.00;100.00;93475.28;5089712;28;20048;-80
2022/02/15 05:07:47;;;;;;;30.30;18.98;;;;;;;1.20;100.00;93504.59;5089775;28;20040;-80
2022/02/15 05:10:14;;;;;;;43.95;27.67;;;;;;;1.24;100.00;93509.38;5089971;28;20526;-80
2022/02/15 05:12:42;;;;;;;36.88;20.10;;;;;;;1.34;100.00;93507.53;5089832;28;20047;-80
2022/02/15 05:15:10;;;;;;;27.52;17.17;;;;;;;1.19;100.00;93492.06;5089729;28;20047;-80
2022/02/15 05:17:43;;;;;;;31.13;19.30;;;;;;;1.36;100.00;93513.28;5089954;28;20093;-80
2022/02/15 05:20:11;;;;;;;29.63;19.52;;;;;;;1.25;100.00;93501.63;5089692;28;20429;-80
2022/02/15 05:22:39;;;;;;;30.35;19.50;;;;;;;1.36;100.00;93520.06;5089653;28;20040;-80
2022/02/15 05:25:09;;;;;;;30.85;19.92;;;;;;;1.38;100.00;93528.31;5089715;28;20094;-80
2022/02/15 05:27:36;;;;;;;44.85;31.98;;;;;;;1.30;100.00;93523.97;5089420;28;20127;-80
2022/02/15 05:30:05;;;;;;;26.52;17.92;;;;;;;1.43;100.00;93544.66;5089353;28;20086;-80
2022/02/15 05:32:31;;;;;;;26.08;17.08;;;;;;;1.40;100.00;93544.94;5089656;28;20040;-80
2022/02/15 05:34:58;;;;;;;27.58;17.92;;;;;;;1.45;100.00;93545.28;5089727;28;20408;-80
2022/02/15 05:37:25;;;;;;;28.67;18.00;;;;;;;1.46;100.00;93544.38;5089651;28;20426;-79
2022/02/15 05:39:52;;;;;;;30.60;19.10;;;;;;;1.49;100.00;93547.53;5089745;28;20040;-79
2022/02/15 05:42:19;;;;;;;27.95;18.88;;;;;;;1.41;100.00;93536.41;5089318;28;20040;-80
2022/02/15 05:44:45;;;;;;;30.08;17.25;;;;;;;1.46;100.00;93551.97;5089448;28;20040;-79
2022/02/15 05:47:14;;;;;;;28.95;18.73;;;;;;;1.48;100.00;93545.94;5089508;28;20055;-79
2022/02/15 05:52:21;;;;;;;23.80;16.48;;;;;;;1.44;100.00;93555.56;5088948;28;20040;-79
2022/02/15 05:54:48;;;;;;;27.13;18.23;;;;;;;1.43;100.00;93548.94;5089214;28;20048;-79
2022/02/15 05:57:15;;;;;;;27.67;18.30;;;;;;;1.45;100.00;93554.63;5089196;28;20086;-79
2022/02/15 05:59:42;;;;;;;27.50;17.85;;;;;;;1.49;100.00;93561.00;5089262;28;20044;-79
2022/02/15 06:02:09;;;;;;;30.63;20.00;;;;;;;1.50;100.00;93564.31;5089503;28;20044;-79
2022/02/15 06:04:37;;;;;;;29.75;18.13;;;;;;;1.52;100.00;93568.28;5089298;28;20480;-80
2022/02/15 06:07:05;;;;;;;31.05;19.75;;;;;;;1.57;100.00;93568.66;5086051;28;20735;-79
2022/02/15 06:09:32;;;;;;;26.77;18.35;;;;;;;1.59;100.00;93571.81;5088294;28;20117;-80
2022/02/15 06:11:59;;;;;;;27.73;19.05;;;;;;;1.65;100.00;93578.06;5089308;28;20048;-80
2022/02/15 06:14:27;;;;;;;33.42;20.65;;;;;;;1.62;100.00;93562.38;5089203;28;20116;-80
2022/02/15 06:16:53;;;;;;;29.48;19.88;;;;;;;1.63;100.00;93563.94;5088856;28;20036;-80
2022/02/15 06:19:20;;;;;;;30.70;20.40;;;;;;;1.78;100.00;93571.81;5090367;28;20040;-80
2022/02/15 06:21:49;;;;;;;28.85;19.80;;;;;;;1.75;100.00;93572.13;5092897;28;20040;-80
2022/02/15 06:24:17;;;;;;;28.38;18.88;;;;;;;1.72;100.00;93568.16;5092910;28;20047;-80
2022/02/15 06:26:44;;;;;;;28.67;18.33;;;;;;;1.56;100.00;93543.47;5092630;28;20047;-80
2022/02/15 06:29:11;;;;;;;29.83;19.70;;;;;;;1.78;100.00;93575.16;5092571;28;20051;-80
2022/02/15 06:31:38;;;;;;;34.97;22.17;;;;;;;1.68;100.00;93551.66;5092933;28;20047;-80
2022/02/15 06:34:06;;;;;;;29.50;18.27;;;;;;;1.77;100.00;93571.03;5092602;28;20044;-80
2022/02/15 06:36:32;;;;;;;25.92;18.15;;;;;;;1.71;100.00;93553.91;5093022;28;20094;-80
2022/02/15 06:39:01;;;;;;;57.85;40.60;;;;;;;1.76;100.00;93576.25;5092774;28;20036;-80
2022/02/15 06:41:28;;;;;;;37.58;26.23;;;;;;;1.76;100.00;93576.25;5092559;28;20062;-79
2022/02/15 06:43:55;;;;;;;25.48;17.73;;;;;;;1.80;100.00;93587.69;5092533;28;20056;-80
2022/02/15 06:46:22;;;;;;;28.40;19.55;;;;;;;1.78;100.00;93579.41;5092632;28;20052;-80
2022/02/15 06:48:48;;;;;;;32.92;21.67;;;;;;;1.87;100.00;93586.94;5092136;28;20056;-79
2022/02/15 06:51:15;;;;;;;47.95;36.10;;;;;;;1.87;100.00;93591.22;5092406;28;20040;-79
2022/02/15 06:53:42;;;;;;;29.75;21.27;;;;;;;1.88;100.00;93595.34;5092038;28;20044;-79
2022/02/15 06:56:11;;;;;;;29.45;19.85;;;;;;;1.83;100.00;93588.19;5092320;28;20036;-80
2022/02/15 06:58:38;;;;;;;31.35;19.17;;;;;;;1.90;100.00;93595.19;5092128;28;20076;-80
2022/02/15 07:01:05;;;;;;;44.50;25.98;;;;;;;1.74;100.00;93566.25;5091930;28;20040;-80
2022/02/15 07:03:32;;;;;;;63.78;35.58;;;;;;;2.08;100.00;93595.97;5092257;28;20044;-80
2022/02/15 07:05:59;;;;;;;33.03;21.50;;;;;;;2.16;100.00;93582.53;5092122;28;20093;-80
2022/02/15 07:08:26;;;;;;;31.75;22.77;;;;;;;2.30;100.00;93583.75;5092044;28;20454;-80
2022/02/15 07:10:54;;;;;;;36.85;24.73;;;;;;;2.48;100.00;93583.69;5092295;28;20054;-79
2022/02/15 07:13:23;;;;;;;24.98;16.70;;;;;;;2.54;100.00;93577.22;5092301;28;20052;-80
2022/02/15 07:15:49;;;;;;;26.50;17.25;;;;;;;2.69;100.00;93579.19;5091758;28;20177;-80
2022/02/15 07:18:16;;;;;;;21.98;14.68;;;;;;;2.76;100.00;93586.03;5091955;28;20044;-80
2022/02/15 07:20:43;;;;;;;25.92;18.15;;;;;;;2.73;100.00;93562.72;5091774;28;20048;-80
2022/02/15 07:23:10;;;;;;;26.90;18.75;;;;;;;2.86;100.00;93567.38;5091815;28;20040;-80
2022/02/15 07:25:37;;;;;;;23.20;16.88;;;;;;;3.01;100.00;93577.75;5091516;28;20073;-80
2022/02/15 07:28:05;;;;;;;25.27;17.33;;;;;;;3.11;100.00;93569.97;5092012;28;20044;-80
2022/02/15 07:30:35;;;;;;;26.63;17.40;;;;;;;3.29;100.00;93573.19;5090665;28;20044;-80
2022/02/15 07:33:03;;;;;;;21.17;14.18;;;;;;;3.42;100.00;93580.38;5091816;28;20062;-80
2022/02/15 07:35:30;;;;;;;25.85;16.27;;;;;;;3.46;100.00;93580.84;5091305;28;20036;-79
2022/02/15 07:37:57;;;;;;;23.52;15.75;;;;;;;3.58;100.00;93577.06;5091652;28;20408;-80
2022/02/15 07:40:24;;;;;;;39.72;20.48;;;;;;;3.70;100.00;93581.84;5091928;28;20130;-80
2022/02/15 07:42:51;;;;;;;27.90;15.85;;;;;;;3.79;100.00;93570.72;5091283;28;20047;-80
2022/02/15 07:45:19;;;;;;;27.05;16.27;;;;;;;3.92;100.00;93579.59;5091519;28;20044;-80
2022/02/15 07:47:49;;;;;;;25.73;17.23;;;;;;;3.94;100.00;93581.03;5087722;28;20488;-80
2022/02/15 07:50:16;;;;;;;21.17;14.82;;;;;;;3.96;100.00;93571.50;5089791;28;20048;-79
2022/02/15 07:52:45;;;;;;;20.60;14.18;;;;;;;4.03;100.00;93565.78;5090625;28;20047;-80
2022/02/15 07:55:12;;;;;;;22.50;12.82;;;;;;;4.18;100.00;93564.19;5091175;28;20070;-80
2022/02/15 07:57:41;;;;;;;18.98;13.25;;;;;;;4.19;100.00;93545.44;5090921;28;20040;-80
2022/02/15 08:00:09;;;;;;;16.80;12.43;;;;;;;4.31;100.00;93560.34;5091097;28;20054;-80
2022/02/15 08:02:36;;;;;;;16.75;12.25;;;;;;;4.36;100.00;93574.16;5091313;28;20040;-80
2022/02/15 08:05:05;;;;;;;18.42;13.43;;;;;;;4.37;100.00;93549.53;5091242;28;20040;-80
2022/02/15 08:07:33;;;;;;;20.25;12.48;;;;;;;4.53;100.00;93569.03;5090683;28;20483;-80
2022/02/15 08:10:02;;;;;;;16.73;11.30;;;;;;;4.48;100.00;93554.25;5090781;28;20517;-80
2022/02/15 08:12:29;;;;;;;16.80;11.55;;;;;;;4.67;100.00;93581.09;5090518;28;20135;-80
2022/02/15 08:14:55;;;;;;;20.13;12.32;;;;;;;4.63;100.00;93568.88;5090878;28;20075;-79
2022/02/15 08:17:22;;;;;;;19.48;13.93;;;;;;;4.86;100.00;93578.31;5090786;28;20395;-79
2022/02/15 08:19:49;;;;;;;20.42;12.93;;;;;;;4.97;100.00;93565.22;5090492;28;20082;-80
2022/02/15 08:22:19;;;;;;;14.23;9.80;;;;;;;5.01;100.00;93570.78;5090896;28;20105;-79
2022/02/15 08:24:45;;;;;;;15.27;11.20;;;;;;;5.18;100.00;93579.94;5090510;28;20104;-79
2022/02/15 08:27:12;;;;;;;14.02;10.40;;;;;;;5.25;100.00;93571.63;5090774;28;20130;-79
2022/02/15 08:29:39;;;;;;;14.30;10.00;;;;;;;5.30;100.00;93571.91;5090846;28;20097;-79
2022/02/15 08:32:06;;;;;;;17.15;10.68;;;;;;;5.39;100.00;93573.47;5090604;28;20055;-80
2022/02/15 08:34:34;;;;;;;15.02;10.30;;;;;;;5.51;100.00;93568.75;5090440;28;20051;-79
2022/02/15 08:37:02;;;;;;;16.35;10.43;;;;;;;5.62;100.00;93570.91;5090689;28;20090;-80
2022/02/15 08:39:31;;;;;;;13.98;10.43;;;;;;;5.64;100.00;93575.06;5089868;28;20044;-80
2022/02/15 08:42:00;;;;;;;18.20;10.32;;;;;;;5.83;100.00;93586.56;5090132;28;20051;-80
2022/02/15 08:44:27;;;;;;;15.40;10.75;;;;;;;5.98;100.00;93589.16;5086782;28;20503;-80
2022/02/15 08:46:55;;;;;;;15.25;11.23;;;;;;;6.11;100.00;93588.59;5088232;28;20496;-80
2022/02/15 08:49:21;;;;;;;14.70;10.25;;;;;;;6.11;100.00;93588.59;5090164;28;20042;-80
2022/02/15 08:51:48;;;;;;;16.45;10.32;;;;;;;6.14;100.00;93588.25;5090062;28;20396;-80
2022/02/15 08:54:15;;;;;;;17.63;11.55;;;;;;;6.35;100.00;93579.91;5090126;28;20047;-80
2022/02/15 08:56:43;;;;;;;16.80;11.30;;;;;;;6.43;100.00;93570.63;5090109;28;20044;-80
2022/02/15 08:59:10;;;;;;;17.60;9.68;;;;;;;6.54;100.00;93568.41;5090250;28;21031;-80
2022/02/15 09:01:37;;;;;;;13.32;8.63;;;;;;;6.37;100.00;93534.63;5089795;28;20051;-80
2022/02/15 09:04:04;;;;;;;12.90;9.05;;;;;;;6.68;100.00;93569.38;5090257;28;20047;-80
2022/02/15 09:06:32;;;;;;;14.50;9.13;;;;;;;6.77;100.00;93574.41;5089924;28;20044;-79
2022/02/15 09:08:59;;;;;;;14.50;8.70;;;;;;;6.82;100.00;93574.66;5090005;28;20044;-79
2022/02/15 09:11:26;;;;;;;14.48;8.90;;;;;;;6.72;99.55;93558.81;5089607;28;20059;-80
2022/02/15 09:13:54;;;;;;;19.55;10.75;;;;;;;6.84;99.59;93580.38;5089670;28;20475;-80
2022/02/15 09:16:21;;;;;;;23.33;15.15;;;;;;;6.63;99.12;93528.28;5089632;28;20040;-80
2022/02/15 09:18:48;;;;;;;17.63;11.52;;;;;;;6.90;99.01;93569.47;5089463;28;20051;-80
2022/02/15 09:21:15;;;;;;;17.83;9.90;;;;;;;6.90;98.37;93569.47;5089818;28;20529;-80
2022/02/15 09:23:42;;;;;;;15.13;8.88;;;;;;;6.73;96.12;93568.06;5089992;28;20093;-80
2022/02/15 09:26:09;;;;;;;14.10;9.40;;;;;;;6.67;97.98;93560.13;5089656;28;20109;-80
2022/02/15 09:28:36;;;;;;;15.05;9.68;;;;;;;6.60;98.73;93554.16;5089549;28;20051;-80
2022/02/15 09:31:05;;;;;;;15.15;8.38;;;;;;;6.69;99.11;93559.97;5089768;28;20049;-80
2022/02/15 09:33:32;;;;;;;12.70;8.07;;;;;;;6.65;97.56;93540.84;5089836;28;20094;-80
2022/02/15 09:35:59;;;;;;;14.02;8.43;;;;;;;6.76;97.41;93552.41;5089343;28;20036;-80
2022/02/15 09:38:26;;;;;;;13.15;8.73;;;;;;;6.84;97.65;93541.31;5089544;28;20044;-80
2022/02/15 09:40:53;;;;;;;13.38;7.60;;;;;;;6.82;96.01;93532.03;5089699;28;20044;-80
2022/02/15 09:43:20;;;;;;;16.10;8.57;;;;;;;7.04;96.88;93549.19;5089396;28;20373;-80
2022/02/15 09:45:50;;;;;;;19.25;8.48;;;;;;;7.26;96.26;93544.13;5086297;28;20048;-80
2022/02/15 09:48:24;;;;;;;34.38;20.33;;;;;;;7.47;94.78;93543.34;5087642;28;20059;-80
2022/02/15 09:50:51;;;;;;;14.25;8.95;;;;;;;7.55;93.34;93524.56;5089060;28;20507;-80
2022/02/15 09:53:18;;;;;;;12.02;7.63;;;;;;;7.77;92.78;93532.22;5089541;28;20064;-80
2022/02/15 09:55:45;;;;;;;16.05;8.45;;;;;;;7.93;91.83;93531.97;5093581;28;20052;-81
2022/02/15 09:58:12;;;;;;;15.52;8.93;;;;;;;8.07;89.74;93526.94;5093336;28;20528;-81
2022/02/15 10:00:39;;;;;;;27.38;17.08;;;;;;;8.26;87.54;93525.47;5093549;28;20040;-80
2022/02/15 10:03:08;;;;;;;23.27;13.80;;;;;;;8.27;88.82;93489.47;5093179;28;20040;-81
2022/02/15 10:05:36;;;;;;;14.85;9.23;;;;;;;8.58;85.14;93522.53;5093240;28;20772;-80
2022/02/15 10:08:03;;;;;;;31.55;17.83;;;;;;;8.74;85.14;93514.53;5093446;28;20048;-81
2022/02/15 10:10:31;;;;;;;13.32;8.50;;;;;;;8.84;86.10;93501.38;5092884;28;20036;-80
2022/02/15 10:13:00;;;;;;;12.32;8.07;;;;;;;9.07;83.63;93513.06;5093134;28;20035;-81
2022/02/15 10:15:34;;;;;;;12.88;6.40;;;;;;;9.19;81.22;93519.25;5092820;28;20558;-81
2022/02/15 10:18:08;;;;;;;11.93;6.32;;;;;;;9.33;80.01;93509.81;5093247;28;20048;-81
2022/02/15 10:20:37;;;;;;;11.10;6.60;;;;;;;9.43;80.21;93506.88;5093067;28;20046;-81
2022/02/15 10:23:18;;;;;;;14.40;8.68;;;;;;;9.55;80.10;93504.53;5093021;28;20036;-81
2022/02/15 10:25:46;;;;;;;10.18;6.78;;;;;;;9.65;78.93;93501.56;5093169;28;20403;-81
2022/02/15 10:28:14;;;;;;;8.48;5.57;;;;;;;9.70;78.46;93493.28;5092841;28;20052;-81
2022/02/15 10:30:46;;;;;;;9.10;5.50;;;;;;;9.70;76.71;93486.38;5092825;28;20048;-81
2022/02/15 10:33:13;;;;;;;48.53;25.60;;;;;;;9.84;73.83;93494.06;5093053;28;20541;-81
2022/02/15 10:35:52;;;;;;;14.63;8.02;;;;;;;9.91;73.70;93494.09;5092625;28;20055;-81
2022/02/15 10:38:26;;;;;;;31.80;19.35;;;;;;;10.02;73.16;93491.72;5093021;28;20097;-81
2022/02/15 10:40:56;;;;;;;13.95;6.70;;;;;;;9.93;72.03;93453.59;5092549;28;20051;-81
2022/02/15 10:43:23;;;;;;;8.32;3.80;;;;;;;10.13;71.45;93476.66;5092864;28;20824;-81
2022/02/15 10:45:49;;;;;;;25.67;12.02;;;;;;;10.21;72.97;93475.69;5092696;28;20040;-81
2022/02/15 10:48:16;;;;;;;13.02;6.63;;;;;;;10.27;72.68;93469.75;5092722;28;20445;-81
2022/02/15 10:50:44;;;;;;;9.65;4.75;;;;;;;10.44;70.95;93472.69;5092735;28;20068;-81
2022/02/15 10:53:11;;;;;;;14.13;7.03;;;;;;;10.42;72.29;93457.47;5092697;28;20044;-81
2022/02/15 10:55:39;;;;;;;8.43;4.75;;;;;;;10.53;70.44;93468.13;5092603;28;20047;-82
2022/02/15 10:58:05;;;;;;;9.65;4.82;;;;;;;10.49;68.94;93472.09;5092530;28;20769;-81
2022/02/15 11:00:32;;;;;;;7.05;4.55;;;;;;;10.42;70.28;93457.47;5092234;28;20048;-81
2022/02/15 11:03:01;;;;;;;19.33;12.23;;;;;;;10.51;69.58;93457.28;5092225;28;20801;-81
2022/02/15 11:05:27;;;;;;;12.52;7.03;;;;;;;10.53;68.71;93453.53;5092069;28;20040;-81
2022/02/15 11:07:57;;;;;;;13.38;7.60;;;;;;;10.48;68.21;93452.53;5091961;28;20044;-81
2022/02/15 11:10:37;;;;;;;8.95;5.30;;;;;;;10.57;69.06;93443.63;5092326;28;20133;-81
2022/02/15 11:13:05;;;;;;;9.52;5.18;;;;;;;10.53;68.58;93421.91;5092117;28;20044;-81
2022/02/15 11:15:34;;;;;;;11.15;5.32;;;;;;;10.69;67.96;93441.19;5091877;28;20051;-81
2022/02/15 11:18:03;;;;;;;9.15;4.82;;;;;;;10.74;66.50;93435.47;5092153;28;20078;-81
2022/02/15 11:20:50;;;;;;;6.57;4.05;;;;;;;10.75;68.91;93430.13;5092103;28;20044;-81
2022/02/15 11:23:20;;;;;;;9.75;4.88;;;;;;;10.86;69.96;93435.59;5092084;28;20495;-81
2022/02/15 11:25:49;;;;;;;10.18;5.70;;;;;;;10.75;66.40;93407.00;5091453;28;20055;-81
2022/02/15 11:28:20;;;;;;;6.97;4.47;;;;;;;11.00;68.67;93423.44;5091554;28;20047;-81